createdAt,value
2019-02-23T00:00:46.721Z,11.80
2019-02-23T00:03:16.390Z,11.80
2019-02-23T00:05:46.167Z,11.80
2019-02-23T00:08:15.846Z,11.80
2019-02-23T00:10:45.516Z,11.80
2019-02-23T00:13:15.193Z,11.80
2019-02-23T00:15:44.963Z,11.80
2019-02-23T00:18:16.387Z,11.80
2019-02-23T00:20:46.050Z,11.80
2019-02-23T00:23:15.767Z,11.80
2019-02-23T00:25:45.432Z,11.70
2019-02-23T00:28:15.445Z,11.70
2019-02-23T00:30:45.485Z,11.70
2019-02-23T00:33:15.289Z,11.70
2019-02-23T00:35:44.966Z,11.70
2019-02-23T00:38:14.821Z,11.70
2019-02-23T00:40:44.574Z,11.70
2019-02-23T00:43:15.103Z,11.60
2019-02-23T00:45:44.787Z,11.60
2019-02-23T00:48:14.482Z,11.60
2019-02-23T00:50:44.144Z,11.60
2019-02-23T00:53:13.936Z,11.50
2019-02-23T00:55:43.592Z,11.50
2019-02-23T00:58:13.275Z,11.50
2019-02-23T01:00:42.980Z,11.50
2019-02-23T01:03:12.729Z,11.40
2019-02-23T01:05:43.983Z,11.40
2019-02-23T01:08:14.906Z,11.40
2019-02-23T01:10:44.647Z,11.40
2019-02-23T01:13:15.416Z,11.40
2019-02-23T01:15:45.138Z,11.40
2019-02-23T01:18:14.830Z,11.30
2019-02-23T01:20:44.476Z,11.30
2019-02-23T01:23:14.281Z,11.30
2019-02-23T01:25:43.952Z,11.30
2019-02-23T01:28:13.696Z,11.30
2019-02-23T01:30:43.402Z,11.30
2019-02-23T01:33:13.074Z,11.20
2019-02-23T01:35:42.758Z,11.20
2019-02-23T01:38:12.534Z,11.20
2019-02-23T01:40:42.205Z,11.20
2019-02-23T01:43:11.876Z,11.20
2019-02-23T01:45:42.618Z,11.20
2019-02-23T01:48:12.485Z,11.20
2019-02-23T01:50:42.170Z,11.20
2019-02-23T01:53:11.920Z,11.20
2019-02-23T01:55:41.587Z,11.20
2019-02-23T01:58:11.261Z,11.20
2019-02-23T02:00:41.844Z,11.20
2019-02-23T02:03:11.520Z,11.20
2019-02-23T02:05:41.343Z,11.20
2019-02-23T02:08:11.046Z,11.20
2019-02-23T02:10:40.799Z,11.20
2019-02-23T02:13:10.479Z,11.20
2019-02-23T02:15:40.852Z,11.10
2019-02-23T02:18:10.508Z,11.10
2019-02-23T02:20:40.401Z,11.10
2019-02-23T02:23:10.097Z,11.10
2019-02-23T02:25:39.766Z,11.10
2019-02-23T02:28:09.446Z,11.10
2019-02-23T02:30:39.130Z,11.10
2019-02-23T02:33:08.808Z,11.10
2019-02-23T02:35:38.566Z,11.10
2019-02-23T02:38:08.336Z,11.10
2019-02-23T02:40:38.007Z,11.10
2019-02-23T02:43:07.694Z,11.10
2019-02-23T02:45:37.517Z,11.10
2019-02-23T02:48:08.660Z,11.10
2019-02-23T02:50:38.397Z,11.10
2019-02-23T02:53:08.085Z,11.00
2019-02-23T02:55:37.827Z,11.00
2019-02-23T02:58:07.481Z,11.00
2019-02-23T03:00:37.184Z,11.00
2019-02-23T03:03:06.854Z,11.00
2019-02-23T03:05:36.524Z,11.00
2019-02-23T03:08:06.226Z,11.00
2019-02-23T03:10:35.967Z,11.00
2019-02-23T03:13:05.629Z,11.00
2019-02-23T03:15:35.402Z,11.00
2019-02-23T03:18:05.061Z,11.00
2019-02-23T03:20:36.895Z,11.00
2019-02-23T03:23:06.146Z,11.00
2019-02-23T03:25:35.964Z,11.00
2019-02-23T03:28:24.932Z,11.00
2019-02-23T03:30:54.913Z,11.00
2019-02-23T03:33:24.561Z,11.00
2019-02-23T03:35:57.118Z,10.90
2019-02-23T03:38:27.788Z,10.90
2019-02-23T03:40:59.621Z,10.90
2019-02-23T03:43:29.310Z,10.90
2019-02-23T03:45:58.987Z,10.90
2019-02-23T03:48:28.844Z,10.90
2019-02-23T03:50:58.602Z,10.90
2019-02-23T03:53:28.284Z,10.90
2019-02-23T03:55:57.957Z,10.90
2019-02-23T03:58:27.649Z,10.90
2019-02-23T04:00:57.327Z,10.90
2019-02-23T04:03:27.044Z,10.90
2019-02-23T04:05:56.694Z,10.90
2019-02-23T04:08:26.386Z,10.80
2019-02-23T04:10:56.058Z,10.80
2019-02-23T04:13:25.745Z,10.80
2019-02-23T04:15:55.418Z,10.80
2019-02-23T04:18:25.081Z,10.80
2019-02-23T04:21:01.680Z,10.80
2019-02-23T04:23:26.240Z,10.80
2019-02-23T04:25:55.915Z,10.80
2019-02-23T04:28:25.589Z,10.80
2019-02-23T04:30:55.394Z,10.80
2019-02-23T04:33:25.083Z,10.80
2019-02-23T04:35:54.763Z,10.70
2019-02-23T04:38:26.187Z,10.70
2019-02-23T04:40:55.851Z,10.70
2019-02-23T04:43:25.533Z,10.70
2019-02-23T04:45:55.201Z,10.70
2019-02-23T04:48:24.865Z,10.70
2019-02-23T04:50:54.639Z,10.70
2019-02-23T04:53:24.565Z,10.70
2019-02-23T04:55:54.235Z,10.60
2019-02-23T04:58:23.928Z,10.60
2019-02-23T05:00:53.602Z,10.60
2019-02-23T05:03:23.382Z,10.60
2019-02-23T05:05:53.068Z,10.60
2019-02-23T05:08:22.724Z,10.60
2019-02-23T05:10:52.399Z,10.60
2019-02-23T05:13:22.128Z,10.60
2019-02-23T05:15:51.942Z,10.60
2019-02-23T05:18:21.622Z,10.60
2019-02-23T05:20:51.485Z,10.60
2019-02-23T05:23:21.178Z,10.70
2019-02-23T05:26:12.900Z,10.70
2019-02-23T05:28:46.987Z,10.70
2019-02-23T05:31:16.658Z,10.70
2019-02-23T05:33:46.436Z,10.80
2019-02-23T05:36:16.132Z,10.80
2019-02-23T05:38:45.805Z,10.90
2019-02-23T05:41:16.101Z,10.90
2019-02-23T05:43:47.412Z,11.00
2019-02-23T05:46:17.090Z,11.10
2019-02-23T05:48:46.780Z,11.20
2019-02-23T05:51:18.768Z,11.20
2019-02-23T05:53:48.506Z,11.30
2019-02-23T05:56:18.261Z,11.30
2019-02-23T05:58:48.015Z,11.40
2019-02-23T06:01:18.375Z,11.40
2019-02-23T06:03:48.071Z,11.50
2019-02-23T06:06:21.028Z,11.50
2019-02-23T06:08:50.693Z,11.60
2019-02-23T06:11:20.389Z,11.70
2019-02-23T06:13:50.071Z,11.70
2019-02-23T06:16:19.749Z,11.80
2019-02-23T06:18:49.554Z,11.80
2019-02-23T06:21:19.298Z,11.90
2019-02-23T06:23:48.982Z,12.00
2019-02-23T06:26:18.693Z,12.00
2019-02-23T06:28:48.851Z,12.00
2019-02-23T06:31:18.596Z,12.10
2019-02-23T06:33:48.317Z,12.20
2019-02-23T06:36:18.001Z,12.20
2019-02-23T06:38:47.927Z,12.20
2019-02-23T06:41:17.632Z,12.30
2019-02-23T06:43:47.371Z,12.30
2019-02-23T06:46:17.053Z,12.30
2019-02-23T06:48:48.239Z,12.40
2019-02-23T06:51:18.212Z,12.50
2019-02-23T06:53:47.887Z,12.50
2019-02-23T06:56:17.593Z,12.50
2019-02-23T06:58:48.893Z,12.60
2019-02-23T07:01:18.555Z,12.60
2019-02-23T07:03:48.272Z,12.70
2019-02-23T07:06:17.923Z,12.70
2019-02-23T07:08:47.590Z,12.80
2019-02-23T07:11:18.996Z,12.80
2019-02-23T07:13:48.847Z,12.80
2019-02-23T07:16:18.549Z,12.80
2019-02-23T07:18:48.337Z,12.90
2019-02-23T07:21:17.999Z,12.90
2019-02-23T07:23:47.668Z,12.90
2019-02-23T07:26:17.366Z,13.00
2019-02-23T07:28:50.509Z,13.00
2019-02-23T07:31:22.260Z,13.10
2019-02-23T07:33:51.954Z,13.10
2019-02-23T07:36:21.625Z,13.10
2019-02-23T07:38:51.343Z,13.10
2019-02-23T07:41:21.105Z,13.10
2019-02-23T07:43:50.790Z,13.20
2019-02-23T07:46:20.485Z,13.20
2019-02-23T07:48:50.139Z,13.30
2019-02-23T07:51:20.035Z,13.30
2019-02-23T07:53:49.730Z,13.30
2019-02-23T07:56:21.236Z,13.30
2019-02-23T07:58:50.916Z,13.40
2019-02-23T08:01:20.677Z,13.40
2019-02-23T08:03:50.379Z,13.40
2019-02-23T08:06:20.068Z,13.50
2019-02-23T08:08:49.765Z,13.50
2019-02-23T08:11:20.023Z,13.50
2019-02-23T08:13:49.718Z,13.60
2019-02-23T08:16:19.400Z,13.60
2019-02-23T08:18:49.144Z,13.70
2019-02-23T08:21:18.822Z,13.70
2019-02-23T08:23:48.502Z,13.70
2019-02-23T08:26:18.184Z,13.70
2019-02-23T08:28:47.935Z,13.80
2019-02-23T08:31:18.720Z,13.80
2019-02-23T08:33:48.450Z,13.80
2019-02-23T08:36:18.216Z,13.90
2019-02-23T08:38:47.904Z,13.90
2019-02-23T08:41:17.572Z,13.90
2019-02-23T08:43:47.238Z,14.00
2019-02-23T08:46:16.934Z,14.00
2019-02-23T08:48:46.609Z,14.10
2019-02-23T08:51:16.278Z,14.10
2019-02-23T08:53:46.223Z,14.10
2019-02-23T08:56:15.914Z,14.20
2019-02-23T08:58:45.590Z,14.20
2019-02-23T09:01:16.760Z,14.20
2019-02-23T09:03:46.436Z,14.30
2019-02-23T09:06:16.110Z,14.30
2019-02-23T09:08:45.817Z,14.30
2019-02-23T09:11:15.513Z,14.30
2019-02-23T09:13:45.277Z,14.30
2019-02-23T09:16:14.989Z,14.40
2019-02-23T09:18:44.675Z,14.40
2019-02-23T09:21:16.133Z,14.50
2019-02-23T09:23:46.210Z,14.50
2019-02-23T09:26:15.871Z,14.50
2019-02-23T09:28:45.572Z,14.60
2019-02-23T09:31:15.632Z,14.60
2019-02-23T09:33:45.315Z,14.70
2019-02-23T09:36:15.023Z,14.70
2019-02-23T09:38:45.189Z,14.80
2019-02-23T09:41:14.866Z,14.80
2019-02-23T09:43:44.604Z,14.90
2019-02-23T09:46:14.276Z,14.90
2019-02-23T09:48:43.964Z,15.00
2019-02-23T09:51:13.653Z,15.00
2019-02-23T09:53:43.316Z,15.10
2019-02-23T09:56:13.000Z,15.20
2019-02-23T09:58:42.916Z,15.30
2019-02-23T10:01:12.585Z,15.40
2019-02-23T10:03:42.327Z,15.40
2019-02-23T10:06:12.085Z,15.50
2019-02-23T10:08:41.778Z,15.60
2019-02-23T10:11:12.925Z,15.70
2019-02-23T10:13:42.632Z,15.80
2019-02-23T10:16:12.290Z,15.90
2019-02-23T10:18:41.995Z,15.90
2019-02-23T10:21:30.943Z,15.90
2019-02-23T10:24:00.609Z,15.90
2019-02-23T10:26:30.406Z,15.90
2019-02-23T10:29:00.113Z,15.90
2019-02-23T10:31:32.017Z,15.90
2019-02-23T10:34:01.706Z,16.00
2019-02-23T10:36:31.422Z,16.00
2019-02-23T10:39:02.629Z,16.10
2019-02-23T10:41:32.321Z,16.10
2019-02-23T10:44:02.029Z,16.20
2019-02-23T10:46:31.695Z,16.30
2019-02-23T10:49:01.363Z,16.30
2019-02-23T10:51:31.068Z,16.40
2019-02-23T10:54:00.735Z,16.50
2019-02-23T10:56:30.417Z,16.50
2019-02-23T10:59:00.121Z,16.60
2019-02-23T11:01:29.791Z,16.60
2019-02-23T11:04:01.006Z,16.70
2019-02-23T11:06:30.743Z,16.70
2019-02-23T11:09:00.573Z,16.80
2019-02-23T11:11:30.639Z,16.80
2019-02-23T11:14:00.388Z,16.80
2019-02-23T11:16:30.855Z,16.90
2019-02-23T11:19:00.545Z,17.00
2019-02-23T11:21:30.267Z,17.00
2019-02-23T11:23:59.924Z,17.10
2019-02-23T11:26:32.351Z,17.10
2019-02-23T11:29:02.062Z,17.20
2019-02-23T11:31:31.829Z,17.20
2019-02-23T11:34:01.505Z,17.20
2019-02-23T11:36:31.202Z,17.10
2019-02-23T11:39:00.894Z,17.10
2019-02-23T11:41:30.575Z,17.00
2019-02-23T11:44:00.277Z,16.90
2019-02-23T11:46:30.037Z,16.90
2019-02-23T11:48:59.703Z,16.90
2019-02-23T11:51:31.526Z,16.90
2019-02-23T11:54:02.341Z,16.80
2019-02-23T11:56:32.032Z,16.90
2019-02-23T11:59:01.723Z,16.90
2019-02-23T12:01:31.410Z,16.90
2019-02-23T12:04:02.698Z,16.90
2019-02-23T12:06:32.407Z,16.90
2019-02-23T12:09:02.168Z,17.00
2019-02-23T12:11:31.900Z,17.00
2019-02-23T12:14:01.599Z,17.10
2019-02-23T12:16:31.288Z,17.10
2019-02-23T12:19:01.037Z,17.10
2019-02-23T12:21:30.813Z,17.20
2019-02-23T12:24:06.084Z,17.20
2019-02-23T12:26:31.893Z,17.20
2019-02-23T12:29:01.587Z,17.20
2019-02-23T12:31:31.259Z,17.20
2019-02-23T12:34:00.929Z,17.20
2019-02-23T12:36:30.634Z,17.20
2019-02-23T12:39:00.294Z,17.10
2019-02-23T12:41:29.988Z,17.20
2019-02-23T12:43:59.679Z,17.20
2019-02-23T12:46:29.434Z,17.30
2019-02-23T12:48:59.173Z,17.30
2019-02-23T12:51:29.024Z,17.30
2019-02-23T12:54:01.471Z,17.40
2019-02-23T12:56:31.131Z,17.50
2019-02-23T12:59:00.849Z,17.50
2019-02-23T13:01:30.558Z,17.60
2019-02-23T13:04:00.255Z,17.70
2019-02-23T13:06:29.961Z,17.70
2019-02-23T13:09:21.608Z,17.80
2019-02-23T13:12:06.217Z,17.80
2019-02-23T13:14:55.267Z,17.90
2019-02-23T13:17:29.332Z,18.00
2019-02-23T13:20:21.442Z,18.00
2019-02-23T13:23:16.666Z,18.10
2019-02-23T13:26:02.802Z,18.20
2019-02-23T13:29:28.424Z,18.30
2019-02-23T13:32:14.419Z,18.40
2019-02-23T13:35:23.070Z,18.40
2019-02-23T13:41:07.937Z,18.60
2019-02-23T13:44:21.425Z,18.60
2019-02-23T13:47:00.799Z,18.70
2019-02-23T13:50:00.654Z,18.80
2019-02-23T13:53:02.608Z,18.90
2019-02-23T13:56:18.494Z,19.00
2019-02-23T13:59:04.447Z,19.00
2019-02-23T14:02:06.949Z,19.10
2019-02-23T14:05:01.495Z,19.10
2019-02-23T14:08:11.877Z,19.20
2019-02-23T14:11:02.057Z,19.30
2019-02-23T14:13:44.733Z,19.30
2019-02-23T14:16:30.414Z,19.40
2019-02-23T14:19:48.676Z,19.40
2019-02-23T14:23:08.849Z,19.50
2019-02-23T14:26:09.985Z,19.60
2019-02-23T14:29:14.127Z,19.60
2019-02-23T14:32:05.178Z,19.70
2019-02-23T14:34:58.193Z,19.70
2019-02-23T14:37:43.856Z,19.80
2019-02-23T14:40:56.745Z,19.90
2019-02-23T14:44:17.504Z,19.90
2019-02-23T14:47:24.949Z,19.90
2019-02-23T14:50:30.905Z,20.00
2019-02-23T14:53:22.528Z,20.00
2019-02-23T14:56:31.201Z,20.10
2019-02-23T14:59:21.829Z,20.20
2019-02-23T15:01:58.779Z,20.20
2019-02-23T15:05:07.245Z,20.30
2019-02-23T15:08:03.488Z,20.40
2019-02-23T15:10:52.979Z,20.50
2019-02-23T15:13:32.752Z,20.70
2019-02-23T15:16:39.669Z,20.80
2019-02-23T15:19:45.185Z,21.50
2019-02-23T15:23:01.065Z,23.10
2019-02-23T15:25:48.775Z,24.80
2019-02-23T15:28:38.207Z,26.00
2019-02-23T15:31:36.123Z,27.00
2019-02-23T15:34:34.121Z,27.90
2019-02-23T15:37:19.925Z,28.30
2019-02-23T15:40:28.826Z,28.50
2019-02-23T15:43:23.529Z,28.60
2019-02-23T15:46:09.457Z,28.30
2019-02-23T15:49:16.473Z,28.40
2019-02-23T15:51:46.165Z,28.50
2019-02-23T15:54:15.836Z,28.80
2019-02-23T15:56:46.622Z,29.20
2019-02-23T15:59:17.923Z,29.40
2019-02-23T16:01:47.720Z,29.40
2019-02-23T16:04:17.483Z,29.40
2019-02-23T16:06:47.168Z,29.40
2019-02-23T16:09:17.331Z,29.30
2019-02-23T16:11:47.013Z,29.20
2019-02-23T16:14:16.709Z,28.70
2019-02-23T16:16:47.434Z,28.00
2019-02-23T16:19:17.731Z,27.30
2019-02-23T16:21:47.451Z,26.60
2019-02-23T16:24:17.138Z,25.90
2019-02-23T16:26:46.819Z,25.20
2019-02-23T16:29:16.507Z,24.70
2019-02-23T16:31:46.251Z,24.20
2019-02-23T16:34:17.291Z,23.70
2019-02-23T16:36:47.051Z,23.30
2019-02-23T16:39:16.753Z,22.90
2019-02-23T16:41:46.532Z,22.60
2019-02-23T16:44:16.370Z,22.30
2019-02-23T16:46:46.547Z,22.00
2019-02-23T16:49:16.326Z,21.70
2019-02-23T16:51:46.051Z,21.40
2019-02-23T16:54:15.982Z,21.20
2019-02-23T16:56:47.311Z,20.90
2019-02-23T16:59:17.090Z,20.70
2019-02-23T17:01:46.759Z,20.50
2019-02-23T17:04:16.435Z,20.30
2019-02-23T17:06:46.246Z,20.20
2019-02-23T17:09:15.918Z,20.00
2019-02-23T17:11:45.867Z,19.80
2019-02-23T17:14:15.639Z,19.70
2019-02-23T17:16:45.307Z,19.50
2019-02-23T17:19:14.976Z,19.40
2019-02-23T17:21:44.787Z,19.30
2019-02-23T17:24:14.521Z,19.10
2019-02-23T17:26:44.486Z,19.00
2019-02-23T17:29:14.202Z,18.90
2019-02-23T17:31:44.380Z,18.80
2019-02-23T17:34:14.113Z,18.70
2019-02-23T17:36:44.509Z,18.60
2019-02-23T17:39:14.299Z,18.50
2019-02-23T17:41:44.191Z,18.40
2019-02-23T17:44:13.881Z,18.20
2019-02-23T17:46:43.555Z,18.20
2019-02-23T17:49:14.454Z,18.00
2019-02-23T17:51:44.050Z,17.90
2019-02-23T17:54:14.032Z,17.80
2019-02-23T17:56:43.777Z,17.80
2019-02-23T17:59:13.500Z,17.70
2019-02-23T18:01:43.247Z,17.60
2019-02-23T18:04:13.413Z,17.50
2019-02-23T18:06:43.236Z,17.40
2019-02-23T18:09:13.296Z,17.40
2019-02-23T18:11:42.983Z,17.30
2019-02-23T18:14:12.999Z,17.20
2019-02-23T18:16:43.344Z,17.10
2019-02-23T18:22:01.709Z,17.00
2019-02-23T18:24:32.474Z,16.90
2019-02-23T18:27:02.781Z,16.90
2019-02-23T18:29:34.653Z,16.80
2019-02-23T18:32:10.643Z,16.70
2019-02-23T18:34:41.830Z,16.70
2019-02-23T18:37:11.898Z,16.60
2019-02-23T18:39:42.581Z,16.60
2019-02-23T18:42:12.341Z,16.50
2019-02-23T18:44:42.122Z,16.50
2019-02-23T18:47:15.505Z,16.40
2019-02-23T18:49:45.214Z,16.40
2019-02-23T18:52:14.961Z,16.30
2019-02-23T18:54:44.634Z,16.30
2019-02-23T18:57:14.340Z,16.30
2019-02-23T18:59:44.012Z,16.30
2019-02-23T19:02:13.694Z,16.20
2019-02-23T19:04:43.394Z,16.20
2019-02-23T19:07:14.721Z,16.20
2019-02-23T19:09:44.465Z,16.20
2019-02-23T19:12:15.054Z,16.10
2019-02-23T19:14:46.607Z,16.10
2019-02-23T19:17:16.468Z,16.10
2019-02-23T19:19:46.198Z,16.10
2019-02-23T19:22:15.871Z,16.10
2019-02-23T19:24:45.645Z,16.10
2019-02-23T19:27:15.353Z,16.10
2019-02-23T19:29:45.116Z,16.00
2019-02-23T19:32:15.002Z,16.00
2019-02-23T19:34:44.731Z,16.00
2019-02-23T19:37:14.431Z,16.00
2019-02-23T19:39:44.117Z,16.00
2019-02-23T19:42:13.926Z,16.00
2019-02-23T19:44:43.697Z,16.00
2019-02-23T19:47:13.367Z,16.00
2019-02-23T19:49:43.151Z,16.00
2019-02-23T19:52:14.496Z,16.00
2019-02-23T19:54:44.285Z,16.00
2019-02-23T19:57:14.311Z,16.00
2019-02-23T19:59:44.197Z,16.00
2019-02-23T20:02:14.001Z,16.00
2019-02-23T20:04:43.807Z,15.90
2019-02-23T20:07:13.507Z,15.90
2019-02-23T20:09:44.758Z,15.90
2019-02-23T20:12:15.978Z,15.90
2019-02-23T20:14:45.675Z,15.90
2019-02-23T20:17:15.374Z,15.90
2019-02-23T20:19:45.062Z,15.90
2019-02-23T20:22:14.774Z,15.90
2019-02-23T20:24:44.448Z,15.90
2019-02-23T20:27:14.139Z,15.80
2019-02-23T20:29:43.887Z,15.80
2019-02-23T20:32:13.560Z,15.80
2019-02-23T20:34:43.265Z,15.80
2019-02-23T20:37:12.953Z,15.80
2019-02-23T20:39:42.641Z,15.80
2019-02-23T20:42:12.361Z,15.80
2019-02-23T20:44:42.035Z,15.90
2019-02-23T20:47:14.012Z,15.90
2019-02-23T20:49:43.734Z,15.90
2019-02-23T20:52:13.421Z,15.80
2019-02-23T20:54:43.878Z,15.80
2019-02-23T20:57:14.311Z,15.80
2019-02-23T20:59:44.068Z,15.80
2019-02-23T21:02:13.811Z,15.80
2019-02-23T21:04:43.601Z,15.80
2019-02-23T21:07:14.942Z,15.70
2019-02-23T21:09:44.996Z,15.70
2019-02-23T21:12:14.759Z,15.70
2019-02-23T21:14:44.509Z,15.60
2019-02-23T21:17:14.173Z,15.60
2019-02-23T21:19:43.921Z,15.50
2019-02-23T21:22:13.628Z,15.50
2019-02-23T21:24:43.291Z,15.50
2019-02-23T21:27:13.363Z,15.40
2019-02-23T21:29:43.071Z,15.40
2019-02-23T21:32:12.746Z,15.30
2019-02-23T21:34:43.879Z,15.30
2019-02-23T21:37:13.642Z,15.20
2019-02-23T21:39:44.566Z,15.20
2019-02-23T21:42:14.278Z,15.10
2019-02-23T21:44:43.964Z,15.10
2019-02-23T21:47:13.629Z,15.00
2019-02-23T21:49:43.346Z,15.00
2019-02-23T21:52:14.539Z,15.00
2019-02-23T21:54:44.532Z,14.90
2019-02-23T21:57:21.957Z,14.90
2019-02-23T21:59:47.429Z,14.90
2019-02-23T22:02:17.112Z,14.90
2019-02-23T22:04:46.819Z,14.90
2019-02-23T22:07:16.922Z,14.90
2019-02-23T22:09:46.591Z,14.80
2019-02-23T22:12:16.297Z,14.80
2019-02-23T22:14:46.573Z,14.80
2019-02-23T22:17:16.308Z,14.80
2019-02-23T22:19:45.994Z,14.80
2019-02-23T22:22:15.687Z,14.80
2019-02-23T22:24:45.367Z,14.80
2019-02-23T22:27:15.061Z,14.80
2019-02-23T22:29:47.485Z,14.70
2019-02-23T22:32:17.148Z,14.70
2019-02-23T22:34:46.852Z,14.70
2019-02-23T22:37:16.522Z,14.70
2019-02-23T22:39:46.213Z,14.70
2019-02-23T22:42:15.926Z,14.70
2019-02-23T22:44:45.581Z,14.70
2019-02-23T22:47:15.261Z,14.70
2019-02-23T22:49:46.000Z,14.70
2019-02-23T22:52:16.114Z,14.60
2019-02-23T22:54:45.850Z,14.60
2019-02-23T22:57:15.559Z,14.60
2019-02-23T22:59:45.216Z,14.50
2019-02-23T23:02:14.977Z,14.50
2019-02-23T23:04:44.677Z,14.50
2019-02-23T23:07:14.364Z,14.40
2019-02-23T23:09:44.901Z,14.40
2019-02-23T23:12:14.683Z,14.40
2019-02-23T23:14:44.359Z,14.40
2019-02-23T23:17:14.043Z,14.40
2019-02-23T23:19:44.197Z,14.30
2019-02-23T23:22:14.062Z,14.30
2019-02-23T23:24:43.757Z,14.30
2019-02-23T23:27:13.441Z,14.20
2019-02-23T23:29:43.197Z,14.20
2019-02-23T23:32:13.102Z,14.20
2019-02-23T23:34:42.766Z,14.10
2019-02-23T23:37:14.044Z,14.10
2019-02-23T23:39:43.742Z,14.00
2019-02-23T23:42:13.431Z,14.00
2019-02-23T23:44:43.720Z,14.00
2019-02-23T23:47:13.411Z,13.90
2019-02-23T23:49:43.177Z,13.90
2019-02-23T23:52:12.835Z,13.80
2019-02-23T23:54:42.549Z,13.80
2019-02-23T23:57:12.355Z,13.70
2019-02-23T23:59:42.111Z,13.70
